sensor_id;sensor_type;location;lat;lon;timestamp;P1;durP1;ratioP1;P2;durP2;ratioP2
18596;SDS011;9428;50.950;6.912;2023-02-27T00:01:15;3.10;;;1.70;;
18596;SDS011;9428;50.950;6.912;2023-02-27T00:04:04;3.33;;;1.97;;
18596;SDS011;9428;50.950;6.912;2023-02-27T00:06:51;3.60;;;2.20;;
18596;SDS011;9428;50.950;6.912;2023-02-27T00:09:38;3.27;;;1.93;;
18596;SDS011;9428;50.950;6.912;2023-02-27T00:12:26;4.67;;;2.30;;
18596;SDS011;9428;50.950;6.912;2023-02-27T00:15:16;5.50;;;1.87;;
18596;SDS011;9428;50.950;6.912;2023-02-27T00:18:05;3.23;;;2.00;;
18596;SDS011;9428;50.950;6.912;2023-02-27T00:20:54;1.90;;;1.60;;
18596;SDS011;9428;50.950;6.912;2023-02-27T00:23:41;3.50;;;1.93;;
18596;SDS011;9428;50.950;6.912;2023-02-27T00:26:28;3.00;;;1.80;;
18596;SDS011;9428;50.950;6.912;2023-02-27T00:29:15;3.13;;;2.00;;
18596;SDS011;9428;50.950;6.912;2023-02-27T00:32:02;3.23;;;1.80;;
18596;SDS011;9428;50.950;6.912;2023-02-27T00:34:49;6.30;;;2.47;;
18596;SDS011;9428;50.950;6.912;2023-02-27T00:37:38;4.70;;;2.30;;
18596;SDS011;9428;50.950;6.912;2023-02-27T00:40:26;5.07;;;2.57;;
18596;SDS011;9428;50.950;6.912;2023-02-27T00:43:13;4.03;;;2.40;;
18596;SDS011;9428;50.950;6.912;2023-02-27T00:46:00;5.03;;;1.80;;
18596;SDS011;9428;50.950;6.912;2023-02-27T00:48:47;6.47;;;2.27;;
18596;SDS011;9428;50.950;6.912;2023-02-27T00:51:35;3.53;;;2.30;;
18596;SDS011;9428;50.950;6.912;2023-02-27T00:54:23;3.53;;;2.10;;
18596;SDS011;9428;50.950;6.912;2023-02-27T00:57:10;3.63;;;2.20;;
18596;SDS011;9428;50.950;6.912;2023-02-27T00:59:58;3.47;;;2.13;;
18596;SDS011;9428;50.950;6.912;2023-02-27T01:02:45;5.53;;;2.10;;
18596;SDS011;9428;50.950;6.912;2023-02-27T01:05:32;7.27;;;2.77;;
18596;SDS011;9428;50.950;6.912;2023-02-27T01:08:19;5.67;;;2.40;;
18596;SDS011;9428;50.950;6.912;2023-02-27T01:11:08;6.87;;;2.73;;
18596;SDS011;9428;50.950;6.912;2023-02-27T01:13:56;4.07;;;2.37;;
18596;SDS011;9428;50.950;6.912;2023-02-27T01:16:43;3.90;;;1.97;;
18596;SDS011;9428;50.950;6.912;2023-02-27T01:19:30;4.00;;;1.87;;
18596;SDS011;9428;50.950;6.912;2023-02-27T01:22:17;3.30;;;1.93;;
18596;SDS011;9428;50.950;6.912;2023-02-27T01:25:05;5.53;;;2.30;;
18596;SDS011;9428;50.950;6.912;2023-02-27T01:27:54;6.07;;;2.17;;
18596;SDS011;9428;50.950;6.912;2023-02-27T01:30:41;2.47;;;1.73;;
18596;SDS011;9428;50.950;6.912;2023-02-27T01:33:28;4.03;;;2.00;;
18596;SDS011;9428;50.950;6.912;2023-02-27T01:36:15;3.50;;;1.73;;
18596;SDS011;9428;50.950;6.912;2023-02-27T01:39:03;3.30;;;1.60;;
18596;SDS011;9428;50.950;6.912;2023-02-27T01:41:50;3.87;;;1.90;;
18596;SDS011;9428;50.950;6.912;2023-02-27T01:48:05;3.67;;;1.93;;
18596;SDS011;9428;50.950;6.912;2023-02-27T01:50:59;4.67;;;2.30;;
18596;SDS011;9428;50.950;6.912;2023-02-27T01:53:50;3.13;;;2.13;;
18596;SDS011;9428;50.950;6.912;2023-02-27T01:56:38;2.70;;;1.80;;
18596;SDS011;9428;50.950;6.912;2023-02-27T01:59:27;4.50;;;1.90;;
18596;SDS011;9428;50.950;6.912;2023-02-27T02:02:18;5.30;;;1.97;;
18596;SDS011;9428;50.950;6.912;2023-02-27T02:05:10;2.80;;;1.63;;
18596;SDS011;9428;50.950;6.912;2023-02-27T02:08:00;5.43;;;2.20;;
18596;SDS011;9428;50.950;6.912;2023-02-27T02:10:49;3.73;;;1.93;;
18596;SDS011;9428;50.950;6.912;2023-02-27T02:13:39;4.07;;;1.80;;
18596;SDS011;9428;50.950;6.912;2023-02-27T02:16:32;5.60;;;2.43;;
18596;SDS011;9428;50.950;6.912;2023-02-27T02:23:08;5.90;;;2.73;;
18596;SDS011;9428;50.950;6.912;2023-02-27T02:26:22;3.13;;;1.93;;
18596;SDS011;9428;50.950;6.912;2023-02-27T02:39:55;11.43;;;2.10;;
18596;SDS011;9428;50.950;6.912;2023-02-27T02:42:51;3.83;;;1.90;;
18596;SDS011;9428;50.950;6.912;2023-02-27T02:45:47;4.20;;;2.07;;
18596;SDS011;9428;50.950;6.912;2023-02-27T02:48:43;5.20;;;1.90;;
18596;SDS011;9428;50.950;6.912;2023-02-27T02:51:33;2.87;;;2.00;;
18596;SDS011;9428;50.950;6.912;2023-02-27T02:54:25;3.83;;;2.00;;
18596;SDS011;9428;50.950;6.912;2023-02-27T02:57:24;3.40;;;1.50;;
18596;SDS011;9428;50.950;6.912;2023-02-27T03:00:16;3.57;;;2.10;;
18596;SDS011;9428;50.950;6.912;2023-02-27T03:03:07;5.43;;;2.20;;
18596;SDS011;9428;50.950;6.912;2023-02-27T03:06:00;4.60;;;2.33;;
18596;SDS011;9428;50.950;6.912;2023-02-27T03:08:58;3.73;;;1.70;;
18596;SDS011;9428;50.950;6.912;2023-02-27T03:11:52;4.07;;;1.97;;
18596;SDS011;9428;50.950;6.912;2023-02-27T03:14:44;4.97;;;2.07;;
18596;SDS011;9428;50.950;6.912;2023-02-27T03:17:38;3.00;;;1.87;;
18596;SDS011;9428;50.950;6.912;2023-02-27T03:20:31;5.80;;;2.70;;
18596;SDS011;9428;50.950;6.912;2023-02-27T03:23:22;3.87;;;2.40;;
18596;SDS011;9428;50.950;6.912;2023-02-27T03:26:14;3.17;;;1.83;;
18596;SDS011;9428;50.950;6.912;2023-02-27T03:29:06;3.47;;;2.03;;
18596;SDS011;9428;50.950;6.912;2023-02-27T03:31:57;4.47;;;2.07;;
18596;SDS011;9428;50.950;6.912;2023-02-27T03:34:49;4.83;;;1.93;;
18596;SDS011;9428;50.950;6.912;2023-02-27T03:37:38;4.30;;;2.57;;
18596;SDS011;9428;50.950;6.912;2023-02-27T03:40:31;2.83;;;1.80;;
18596;SDS011;9428;50.950;6.912;2023-02-27T03:43:25;4.70;;;2.30;;
18596;SDS011;9428;50.950;6.912;2023-02-27T03:46:17;5.80;;;2.17;;
18596;SDS011;9428;50.950;6.912;2023-02-27T03:49:08;6.13;;;1.97;;
18596;SDS011;9428;50.950;6.912;2023-02-27T03:51:55;4.00;;;1.80;;
18596;SDS011;9428;50.950;6.912;2023-02-27T03:54:44;4.37;;;2.77;;
18596;SDS011;9428;50.950;6.912;2023-02-27T03:57:36;6.93;;;2.40;;
18596;SDS011;9428;50.950;6.912;2023-02-27T04:00:23;5.87;;;2.90;;
18596;SDS011;9428;50.950;6.912;2023-02-27T04:03:12;4.53;;;2.70;;
18596;SDS011;9428;50.950;6.912;2023-02-27T04:06:01;6.03;;;2.53;;
18596;SDS011;9428;50.950;6.912;2023-02-27T04:09:10;4.80;;;2.57;;
18596;SDS011;9428;50.950;6.912;2023-02-27T04:12:10;4.67;;;2.23;;
18596;SDS011;9428;50.950;6.912;2023-02-27T04:15:13;6.97;;;2.87;;
18596;SDS011;9428;50.950;6.912;2023-02-27T04:18:11;3.43;;;2.33;;
18596;SDS011;9428;50.950;6.912;2023-02-27T04:21:13;9.87;;;2.70;;
18596;SDS011;9428;50.950;6.912;2023-02-27T04:24:09;5.17;;;2.63;;
18596;SDS011;9428;50.950;6.912;2023-02-27T04:27:07;5.23;;;2.77;;
18596;SDS011;9428;50.950;6.912;2023-02-27T04:30:06;4.03;;;2.80;;
18596;SDS011;9428;50.950;6.912;2023-02-27T04:33:02;3.47;;;2.70;;
18596;SDS011;9428;50.950;6.912;2023-02-27T04:35:55;6.53;;;2.90;;
18596;SDS011;9428;50.950;6.912;2023-02-27T04:38:48;5.07;;;3.03;;
18596;SDS011;9428;50.950;6.912;2023-02-27T04:41:40;5.63;;;2.93;;
18596;SDS011;9428;50.950;6.912;2023-02-27T04:44:32;5.67;;;2.67;;
18596;SDS011;9428;50.950;6.912;2023-02-27T04:47:22;5.10;;;2.80;;
18596;SDS011;9428;50.950;6.912;2023-02-27T04:50:13;5.53;;;3.00;;
18596;SDS011;9428;50.950;6.912;2023-02-27T04:53:04;5.83;;;2.90;;
18596;SDS011;9428;50.950;6.912;2023-02-27T04:55:58;7.27;;;2.90;;
18596;SDS011;9428;50.950;6.912;2023-02-27T04:58:51;5.07;;;2.83;;
18596;SDS011;9428;50.950;6.912;2023-02-27T05:01:40;6.47;;;3.50;;
18596;SDS011;9428;50.950;6.912;2023-02-27T05:04:34;4.70;;;2.87;;
18596;SDS011;9428;50.950;6.912;2023-02-27T05:07:25;6.83;;;3.23;;
18596;SDS011;9428;50.950;6.912;2023-02-27T05:10:16;9.17;;;3.60;;
18596;SDS011;9428;50.950;6.912;2023-02-27T05:13:12;5.07;;;3.50;;
18596;SDS011;9428;50.950;6.912;2023-02-27T05:16:03;4.37;;;3.20;;
18596;SDS011;9428;50.950;6.912;2023-02-27T05:18:55;4.50;;;3.50;;
18596;SDS011;9428;50.950;6.912;2023-02-27T05:21:44;5.37;;;3.70;;
18596;SDS011;9428;50.950;6.912;2023-02-27T05:24:38;6.90;;;2.77;;
18596;SDS011;9428;50.950;6.912;2023-02-27T05:27:32;14.93;;;4.63;;
18596;SDS011;9428;50.950;6.912;2023-02-27T05:30:28;11.60;;;5.10;;
18596;SDS011;9428;50.950;6.912;2023-02-27T05:33:20;10.33;;;4.27;;
18596;SDS011;9428;50.950;6.912;2023-02-27T05:36:14;8.10;;;4.43;;
18596;SDS011;9428;50.950;6.912;2023-02-27T05:39:06;8.40;;;3.87;;
18596;SDS011;9428;50.950;6.912;2023-02-27T05:41:55;12.73;;;5.47;;
18596;SDS011;9428;50.950;6.912;2023-02-27T05:44:48;8.73;;;3.70;;
18596;SDS011;9428;50.950;6.912;2023-02-27T05:47:42;9.40;;;4.00;;
18596;SDS011;9428;50.950;6.912;2023-02-27T05:50:34;9.83;;;4.07;;
18596;SDS011;9428;50.950;6.912;2023-02-27T05:53:24;8.63;;;4.10;;
18596;SDS011;9428;50.950;6.912;2023-02-27T05:56:16;7.83;;;3.70;;
18596;SDS011;9428;50.950;6.912;2023-02-27T05:59:07;7.47;;;3.87;;
18596;SDS011;9428;50.950;6.912;2023-02-27T06:01:59;9.87;;;4.10;;
18596;SDS011;9428;50.950;6.912;2023-02-27T06:04:48;7.73;;;3.60;;
18596;SDS011;9428;50.950;6.912;2023-02-27T06:07:35;5.73;;;3.57;;
18596;SDS011;9428;50.950;6.912;2023-02-27T06:10:22;6.77;;;3.37;;
18596;SDS011;9428;50.950;6.912;2023-02-27T06:13:10;10.77;;;4.60;;
18596;SDS011;9428;50.950;6.912;2023-02-27T06:15:57;11.03;;;4.40;;
18596;SDS011;9428;50.950;6.912;2023-02-27T06:18:44;7.13;;;3.80;;
18596;SDS011;9428;50.950;6.912;2023-02-27T06:21:33;7.47;;;3.60;;
18596;SDS011;9428;50.950;6.912;2023-02-27T06:24:23;5.50;;;3.30;;
18596;SDS011;9428;50.950;6.912;2023-02-27T06:27:11;4.80;;;2.83;;
18596;SDS011;9428;50.950;6.912;2023-02-27T06:29:58;5.77;;;3.27;;
18596;SDS011;9428;50.950;6.912;2023-02-27T06:32:45;17.10;;;3.37;;
18596;SDS011;9428;50.950;6.912;2023-02-27T06:35:32;5.50;;;3.30;;
18596;SDS011;9428;50.950;6.912;2023-02-27T06:38:21;4.43;;;2.90;;
18596;SDS011;9428;50.950;6.912;2023-02-27T06:41:08;6.57;;;3.37;;
18596;SDS011;9428;50.950;6.912;2023-02-27T06:43:55;7.47;;;3.60;;
18596;SDS011;9428;50.950;6.912;2023-02-27T06:46:42;5.53;;;2.80;;
18596;SDS011;9428;50.950;6.912;2023-02-27T06:49:30;9.50;;;3.57;;
18596;SDS011;9428;50.950;6.912;2023-02-27T06:52:17;6.50;;;3.63;;
18596;SDS011;9428;50.950;6.912;2023-02-27T06:55:06;8.73;;;2.87;;
18596;SDS011;9428;50.950;6.912;2023-02-27T06:57:54;7.40;;;2.67;;
18596;SDS011;9428;50.950;6.912;2023-02-27T07:00:41;6.17;;;2.83;;
18596;SDS011;9428;50.950;6.912;2023-02-27T07:03:29;5.90;;;3.37;;
18596;SDS011;9428;50.950;6.912;2023-02-27T07:06:16;5.93;;;3.53;;
18596;SDS011;9428;50.950;6.912;2023-02-27T07:09:03;7.37;;;3.43;;
18596;SDS011;9428;50.950;6.912;2023-02-27T07:11:52;11.03;;;3.93;;
18596;SDS011;9428;50.950;6.912;2023-02-27T07:14:39;6.97;;;3.43;;
18596;SDS011;9428;50.950;6.912;2023-02-27T07:17:26;5.50;;;2.77;;
18596;SDS011;9428;50.950;6.912;2023-02-27T07:20:14;7.57;;;3.00;;
18596;SDS011;9428;50.950;6.912;2023-02-27T07:23:01;4.70;;;2.70;;
18596;SDS011;9428;50.950;6.912;2023-02-27T07:25:48;8.27;;;2.57;;
18596;SDS011;9428;50.950;6.912;2023-02-27T07:28:37;8.90;;;3.03;;
18596;SDS011;9428;50.950;6.912;2023-02-27T07:31:24;7.67;;;3.43;;
18596;SDS011;9428;50.950;6.912;2023-02-27T07:34:11;8.40;;;3.50;;
18596;SDS011;9428;50.950;6.912;2023-02-27T07:37:00;4.90;;;2.97;;
18596;SDS011;9428;50.950;6.912;2023-02-27T07:39:47;6.93;;;3.10;;
18596;SDS011;9428;50.950;6.912;2023-02-27T07:42:34;6.60;;;3.30;;
18596;SDS011;9428;50.950;6.912;2023-02-27T07:45:23;8.07;;;3.90;;
18596;SDS011;9428;50.950;6.912;2023-02-27T07:48:10;5.80;;;3.27;;
18596;SDS011;9428;50.950;6.912;2023-02-27T07:50:58;6.70;;;3.27;;
18596;SDS011;9428;50.950;6.912;2023-02-27T07:53:45;5.97;;;3.47;;
18596;SDS011;9428;50.950;6.912;2023-02-27T07:56:32;7.97;;;3.80;;
18596;SDS011;9428;50.950;6.912;2023-02-27T07:59:20;6.50;;;3.47;;
18596;SDS011;9428;50.950;6.912;2023-02-27T08:02:09;4.97;;;2.80;;
18596;SDS011;9428;50.950;6.912;2023-02-27T08:04:57;5.90;;;3.27;;
18596;SDS011;9428;50.950;6.912;2023-02-27T08:07:44;5.83;;;2.23;;
18596;SDS011;9428;50.950;6.912;2023-02-27T08:10:32;4.00;;;2.07;;
18596;SDS011;9428;50.950;6.912;2023-02-27T08:13:19;7.07;;;2.40;;
18596;SDS011;9428;50.950;6.912;2023-02-27T08:16:06;4.03;;;2.57;;
18596;SDS011;9428;50.950;6.912;2023-02-27T08:18:55;4.33;;;2.50;;
18596;SDS011;9428;50.950;6.912;2023-02-27T08:21:42;6.20;;;2.63;;
18596;SDS011;9428;50.950;6.912;2023-02-27T08:24:29;3.83;;;2.17;;
18596;SDS011;9428;50.950;6.912;2023-02-27T08:27:17;4.97;;;2.33;;
18596;SDS011;9428;50.950;6.912;2023-02-27T08:30:04;3.83;;;2.60;;
18596;SDS011;9428;50.950;6.912;2023-02-27T08:32:53;8.47;;;2.80;;
18596;SDS011;9428;50.950;6.912;2023-02-27T08:35:42;4.10;;;2.03;;
18596;SDS011;9428;50.950;6.912;2023-02-27T08:38:29;5.77;;;2.30;;
18596;SDS011;9428;50.950;6.912;2023-02-27T08:41:20;4.90;;;2.40;;
18596;SDS011;9428;50.950;6.912;2023-02-27T08:44:07;4.67;;;2.10;;
18596;SDS011;9428;50.950;6.912;2023-02-27T08:46:56;3.53;;;2.17;;
18596;SDS011;9428;50.950;6.912;2023-02-27T08:49:43;4.50;;;2.47;;
18596;SDS011;9428;50.950;6.912;2023-02-27T08:52:31;2.93;;;1.80;;
18596;SDS011;9428;50.950;6.912;2023-02-27T08:55:19;4.73;;;1.93;;
18596;SDS011;9428;50.950;6.912;2023-02-27T08:58:06;6.90;;;2.13;;
18596;SDS011;9428;50.950;6.912;2023-02-27T09:00:53;6.33;;;2.57;;
18596;SDS011;9428;50.950;6.912;2023-02-27T09:03:40;7.50;;;2.40;;
18596;SDS011;9428;50.950;6.912;2023-02-27T09:06:28;3.87;;;2.27;;
18596;SDS011;9428;50.950;6.912;2023-02-27T09:09:17;5.07;;;2.17;;
18596;SDS011;9428;50.950;6.912;2023-02-27T09:12:04;2.83;;;1.87;;
18596;SDS011;9428;50.950;6.912;2023-02-27T09:14:51;5.83;;;2.73;;
18596;SDS011;9428;50.950;6.912;2023-02-27T09:17:39;4.33;;;2.50;;
18596;SDS011;9428;50.950;6.912;2023-02-27T09:20:26;5.47;;;2.60;;
18596;SDS011;9428;50.950;6.912;2023-02-27T09:23:14;6.50;;;2.60;;
18596;SDS011;9428;50.950;6.912;2023-02-27T09:26:02;4.30;;;2.20;;
18596;SDS011;9428;50.950;6.912;2023-02-27T09:28:51;4.17;;;2.17;;
18596;SDS011;9428;50.950;6.912;2023-02-27T09:31:38;3.17;;;1.80;;
18596;SDS011;9428;50.950;6.912;2023-02-27T09:34:25;3.93;;;2.27;;
18596;SDS011;9428;50.950;6.912;2023-02-27T09:37:12;5.70;;;2.13;;
18596;SDS011;9428;50.950;6.912;2023-02-27T09:40:00;2.87;;;1.70;;
18596;SDS011;9428;50.950;6.912;2023-02-27T09:42:51;2.93;;;1.80;;
18596;SDS011;9428;50.950;6.912;2023-02-27T09:45:42;2.60;;;1.50;;
18596;SDS011;9428;50.950;6.912;2023-02-27T09:48:31;4.33;;;1.50;;
18596;SDS011;9428;50.950;6.912;2023-02-27T09:51:21;2.57;;;1.87;;
18596;SDS011;9428;50.950;6.912;2023-02-27T09:54:09;6.53;;;2.30;;
18596;SDS011;9428;50.950;6.912;2023-02-27T09:56:58;4.57;;;1.77;;
18596;SDS011;9428;50.950;6.912;2023-02-27T09:59:50;2.60;;;1.80;;
18596;SDS011;9428;50.950;6.912;2023-02-27T10:02:43;3.03;;;1.53;;
18596;SDS011;9428;50.950;6.912;2023-02-27T10:05:41;2.07;;;1.70;;
18596;SDS011;9428;50.950;6.912;2023-02-27T10:08:37;2.93;;;1.70;;
18596;SDS011;9428;50.950;6.912;2023-02-27T10:11:31;4.57;;;1.70;;
18596;SDS011;9428;50.950;6.912;2023-02-27T10:14:32;3.10;;;1.77;;
18596;SDS011;9428;50.950;6.912;2023-02-27T10:17:28;2.60;;;1.60;;
18596;SDS011;9428;50.950;6.912;2023-02-27T10:20:21;3.73;;;1.53;;
18596;SDS011;9428;50.950;6.912;2023-02-27T10:23:13;1.37;;;1.23;;
18596;SDS011;9428;50.950;6.912;2023-02-27T10:26:03;3.07;;;1.77;;
18596;SDS011;9428;50.950;6.912;2023-02-27T10:28:51;2.93;;;1.87;;
18596;SDS011;9428;50.950;6.912;2023-02-27T10:31:38;2.67;;;1.60;;
18596;SDS011;9428;50.950;6.912;2023-02-27T10:34:28;1.93;;;1.43;;
18596;SDS011;9428;50.950;6.912;2023-02-27T10:37:17;2.30;;;1.20;;
18596;SDS011;9428;50.950;6.912;2023-02-27T10:40:11;3.90;;;1.17;;
18596;SDS011;9428;50.950;6.912;2023-02-27T10:43:01;5.47;;;1.53;;
18596;SDS011;9428;50.950;6.912;2023-02-27T10:45:50;4.90;;;1.37;;
18596;SDS011;9428;50.950;6.912;2023-02-27T10:48:38;2.07;;;1.07;;
18596;SDS011;9428;50.950;6.912;2023-02-27T10:51:28;1.90;;;1.23;;
18596;SDS011;9428;50.950;6.912;2023-02-27T10:54:20;2.30;;;1.00;;
18596;SDS011;9428;50.950;6.912;2023-02-27T10:57:17;0.60;;;0.60;;
18596;SDS011;9428;50.950;6.912;2023-02-27T11:00:21;2.40;;;1.13;;
18596;SDS011;9428;50.950;6.912;2023-02-27T11:03:17;1.83;;;0.90;;
18596;SDS011;9428;50.950;6.912;2023-02-27T11:06:08;1.40;;;1.00;;
18596;SDS011;9428;50.950;6.912;2023-02-27T11:09:17;1.60;;;1.03;;
18596;SDS011;9428;50.950;6.912;2023-02-27T11:12:10;1.60;;;1.00;;
18596;SDS011;9428;50.950;6.912;2023-02-27T11:15:19;2.73;;;1.20;;
18596;SDS011;9428;50.950;6.912;2023-02-27T11:18:20;1.63;;;1.10;;
18596;SDS011;9428;50.950;6.912;2023-02-27T11:21:15;2.30;;;1.17;;
18596;SDS011;9428;50.950;6.912;2023-02-27T11:24:16;3.90;;;1.10;;
18596;SDS011;9428;50.950;6.912;2023-02-27T11:27:16;2.10;;;0.93;;
18596;SDS011;9428;50.950;6.912;2023-02-27T11:30:09;3.17;;;1.30;;
18596;SDS011;9428;50.950;6.912;2023-02-27T11:33:09;1.93;;;1.17;;
18596;SDS011;9428;50.950;6.912;2023-02-27T11:36:03;3.83;;;1.40;;
18596;SDS011;9428;50.950;6.912;2023-02-27T11:38:52;2.23;;;1.30;;
18596;SDS011;9428;50.950;6.912;2023-02-27T11:41:41;1.03;;;1.00;;
18596;SDS011;9428;50.950;6.912;2023-02-27T11:44:30;1.80;;;1.30;;
18596;SDS011;9428;50.950;6.912;2023-02-27T11:47:23;4.20;;;1.40;;
18596;SDS011;9428;50.950;6.912;2023-02-27T11:50:30;2.50;;;1.40;;
18596;SDS011;9428;50.950;6.912;2023-02-27T11:57:02;3.37;;;1.57;;
18596;SDS011;9428;50.950;6.912;2023-02-27T11:59:55;2.20;;;1.43;;
18596;SDS011;9428;50.950;6.912;2023-02-27T12:02:46;2.07;;;1.37;;
18596;SDS011;9428;50.950;6.912;2023-02-27T12:05:42;2.53;;;1.33;;
18596;SDS011;9428;50.950;6.912;2023-02-27T12:08:33;2.70;;;1.47;;
18596;SDS011;9428;50.950;6.912;2023-02-27T12:11:28;2.30;;;1.37;;
18596;SDS011;9428;50.950;6.912;2023-02-27T12:14:21;3.90;;;1.50;;
18596;SDS011;9428;50.950;6.912;2023-02-27T12:17:15;3.03;;;1.80;;
18596;SDS011;9428;50.950;6.912;2023-02-27T12:20:12;2.73;;;1.70;;
18596;SDS011;9428;50.950;6.912;2023-02-27T12:23:12;3.30;;;1.83;;
18596;SDS011;9428;50.950;6.912;2023-02-27T12:26:05;2.10;;;1.37;;
18596;SDS011;9428;50.950;6.912;2023-02-27T12:28:57;3.07;;;1.40;;
18596;SDS011;9428;50.950;6.912;2023-02-27T12:31:50;3.13;;;1.40;;
18596;SDS011;9428;50.950;6.912;2023-02-27T12:34:39;2.30;;;1.43;;
18596;SDS011;9428;50.950;6.912;2023-02-27T12:37:30;9.50;;;2.00;;
18596;SDS011;9428;50.950;6.912;2023-02-27T12:40:19;2.00;;;1.40;;
18596;SDS011;9428;50.950;6.912;2023-02-27T12:43:17;2.23;;;1.40;;
18596;SDS011;9428;50.950;6.912;2023-02-27T12:46:17;2.43;;;1.33;;
18596;SDS011;9428;50.950;6.912;2023-02-27T12:49:23;1.83;;;1.43;;
18596;SDS011;9428;50.950;6.912;2023-02-27T12:52:26;2.87;;;1.20;;
18596;SDS011;9428;50.950;6.912;2023-02-27T12:55:22;2.03;;;1.37;;
18596;SDS011;9428;50.950;6.912;2023-02-27T12:58:17;2.90;;;1.10;;
18596;SDS011;9428;50.950;6.912;2023-02-27T13:01:20;2.27;;;1.10;;
18596;SDS011;9428;50.950;6.912;2023-02-27T13:04:16;1.23;;;1.00;;
18596;SDS011;9428;50.950;6.912;2023-02-27T13:07:12;2.63;;;1.00;;
18596;SDS011;9428;50.950;6.912;2023-02-27T13:10:09;2.30;;;1.10;;
18596;SDS011;9428;50.950;6.912;2023-02-27T13:13:02;1.53;;;0.97;;
18596;SDS011;9428;50.950;6.912;2023-02-27T13:15:58;1.20;;;1.10;;
18596;SDS011;9428;50.950;6.912;2023-02-27T13:18:51;2.33;;;1.10;;
18596;SDS011;9428;50.950;6.912;2023-02-27T13:21:43;1.50;;;0.97;;
18596;SDS011;9428;50.950;6.912;2023-02-27T13:24:37;5.23;;;1.30;;
18596;SDS011;9428;50.950;6.912;2023-02-27T13:27:30;2.10;;;1.10;;
18596;SDS011;9428;50.950;6.912;2023-02-27T13:30:21;4.83;;;1.17;;
18596;SDS011;9428;50.950;6.912;2023-02-27T13:33:15;1.63;;;0.90;;
18596;SDS011;9428;50.950;6.912;2023-02-27T13:36:11;1.10;;;0.90;;
18596;SDS011;9428;50.950;6.912;2023-02-27T13:39:02;3.17;;;1.33;;
18596;SDS011;9428;50.950;6.912;2023-02-27T13:41:51;3.37;;;1.17;;
18596;SDS011;9428;50.950;6.912;2023-02-27T13:44:39;3.33;;;1.30;;
18596;SDS011;9428;50.950;6.912;2023-02-27T13:47:39;1.77;;;1.30;;
18596;SDS011;9428;50.950;6.912;2023-02-27T13:50:49;2.17;;;1.00;;
18596;SDS011;9428;50.950;6.912;2023-02-27T13:53:37;2.77;;;1.33;;
18596;SDS011;9428;50.950;6.912;2023-02-27T13:56:24;3.47;;;1.30;;
18596;SDS011;9428;50.950;6.912;2023-02-27T13:59:17;2.27;;;1.30;;
18596;SDS011;9428;50.950;6.912;2023-02-27T14:02:21;1.63;;;1.10;;
18596;SDS011;9428;50.950;6.912;2023-02-27T14:05:25;1.37;;;1.13;;
18596;SDS011;9428;50.950;6.912;2023-02-27T14:08:16;2.13;;;1.13;;
18596;SDS011;9428;50.950;6.912;2023-02-27T14:11:14;2.00;;;1.13;;
18596;SDS011;9428;50.950;6.912;2023-02-27T14:14:05;2.10;;;1.00;;
18596;SDS011;9428;50.950;6.912;2023-02-27T14:16:56;2.07;;;1.07;;
18596;SDS011;9428;50.950;6.912;2023-02-27T14:19:53;1.90;;;1.00;;
18596;SDS011;9428;50.950;6.912;2023-02-27T14:26:09;6.73;;;1.67;;
18596;SDS011;9428;50.950;6.912;2023-02-27T14:29:01;2.53;;;1.27;;
18596;SDS011;9428;50.950;6.912;2023-02-27T14:31:49;2.83;;;1.23;;
18596;SDS011;9428;50.950;6.912;2023-02-27T14:34:39;2.33;;;1.30;;
18596;SDS011;9428;50.950;6.912;2023-02-27T14:37:27;1.10;;;1.00;;
18596;SDS011;9428;50.950;6.912;2023-02-27T14:40:17;1.17;;;0.87;;
18596;SDS011;9428;50.950;6.912;2023-02-27T14:43:13;4.07;;;1.77;;
18596;SDS011;9428;50.950;6.912;2023-02-27T14:46:22;4.03;;;1.27;;
18596;SDS011;9428;50.950;6.912;2023-02-27T14:49:16;1.23;;;0.80;;
18596;SDS011;9428;50.950;6.912;2023-02-27T14:52:11;2.23;;;1.20;;
18596;SDS011;9428;50.950;6.912;2023-02-27T14:55:07;2.13;;;1.30;;
18596;SDS011;9428;50.950;6.912;2023-02-27T14:58:07;1.50;;;1.00;;
18596;SDS011;9428;50.950;6.912;2023-02-27T15:00:58;8.07;;;1.40;;
18596;SDS011;9428;50.950;6.912;2023-02-27T15:03:49;4.37;;;1.70;;
18596;SDS011;9428;50.950;6.912;2023-02-27T15:06:39;4.33;;;0.97;;
18596;SDS011;9428;50.950;6.912;2023-02-27T15:09:31;2.17;;;1.17;;
18596;SDS011;9428;50.950;6.912;2023-02-27T15:12:21;3.23;;;1.37;;
18596;SDS011;9428;50.950;6.912;2023-02-27T15:15:14;3.27;;;1.30;;
18596;SDS011;9428;50.950;6.912;2023-02-27T15:18:10;1.53;;;1.20;;
18596;SDS011;9428;50.950;6.912;2023-02-27T15:20:59;3.97;;;1.33;;
18596;SDS011;9428;50.950;6.912;2023-02-27T15:23:52;4.47;;;1.50;;
18596;SDS011;9428;50.950;6.912;2023-02-27T15:26:41;1.87;;;1.23;;
18596;SDS011;9428;50.950;6.912;2023-02-27T15:29:32;3.50;;;1.40;;
18596;SDS011;9428;50.950;6.912;2023-02-27T15:32:27;4.30;;;1.40;;
18596;SDS011;9428;50.950;6.912;2023-02-27T15:35:17;1.57;;;1.30;;
18596;SDS011;9428;50.950;6.912;2023-02-27T15:38:20;3.10;;;1.43;;
18596;SDS011;9428;50.950;6.912;2023-02-27T15:41:10;2.00;;;1.40;;
18596;SDS011;9428;50.950;6.912;2023-02-27T15:44:01;1.97;;;1.30;;
18596;SDS011;9428;50.950;6.912;2023-02-27T15:46:48;2.13;;;1.00;;
18596;SDS011;9428;50.950;6.912;2023-02-27T15:49:36;1.70;;;1.20;;
18596;SDS011;9428;50.950;6.912;2023-02-27T15:52:25;4.83;;;1.50;;
18596;SDS011;9428;50.950;6.912;2023-02-27T15:55:20;6.77;;;1.97;;
18596;SDS011;9428;50.950;6.912;2023-02-27T15:58:14;3.20;;;1.23;;
18596;SDS011;9428;50.950;6.912;2023-02-27T16:01:07;4.53;;;1.27;;
18596;SDS011;9428;50.950;6.912;2023-02-27T16:03:59;1.97;;;1.07;;
18596;SDS011;9428;50.950;6.912;2023-02-27T16:06:50;3.83;;;1.47;;
18596;SDS011;9428;50.950;6.912;2023-02-27T16:09:46;1.17;;;1.07;;
18596;SDS011;9428;50.950;6.912;2023-02-27T16:12:36;3.10;;;1.20;;
18596;SDS011;9428;50.950;6.912;2023-02-27T16:15:26;2.87;;;1.43;;
18596;SDS011;9428;50.950;6.912;2023-02-27T16:18:25;3.47;;;1.40;;
18596;SDS011;9428;50.950;6.912;2023-02-27T16:21:17;2.73;;;1.20;;
18596;SDS011;9428;50.950;6.912;2023-02-27T16:24:16;2.87;;;1.53;;
18596;SDS011;9428;50.950;6.912;2023-02-27T16:27:04;2.93;;;1.40;;
18596;SDS011;9428;50.950;6.912;2023-02-27T16:29:52;3.63;;;1.27;;
18596;SDS011;9428;50.950;6.912;2023-02-27T16:32:41;2.07;;;1.30;;
18596;SDS011;9428;50.950;6.912;2023-02-27T16:35:30;2.67;;;1.30;;
18596;SDS011;9428;50.950;6.912;2023-02-27T16:38:19;2.87;;;1.77;;
18596;SDS011;9428;50.950;6.912;2023-02-27T16:41:07;2.73;;;1.40;;
18596;SDS011;9428;50.950;6.912;2023-02-27T16:43:55;3.67;;;1.43;;
18596;SDS011;9428;50.950;6.912;2023-02-27T16:46:43;3.67;;;1.40;;
18596;SDS011;9428;50.950;6.912;2023-02-27T16:49:30;5.80;;;1.87;;
18596;SDS011;9428;50.950;6.912;2023-02-27T16:52:18;2.37;;;1.63;;
18596;SDS011;9428;50.950;6.912;2023-02-27T16:55:07;4.40;;;1.37;;
18596;SDS011;9428;50.950;6.912;2023-02-27T16:57:54;5.40;;;1.30;;
18596;SDS011;9428;50.950;6.912;2023-02-27T17:00:42;5.97;;;2.00;;
18596;SDS011;9428;50.950;6.912;2023-02-27T17:03:29;3.40;;;1.97;;
18596;SDS011;9428;50.950;6.912;2023-02-27T17:06:18;3.50;;;1.73;;
18596;SDS011;9428;50.950;6.912;2023-02-27T17:09:08;9.47;;;1.77;;
18596;SDS011;9428;50.950;6.912;2023-02-27T17:11:56;4.20;;;1.60;;
18596;SDS011;9428;50.950;6.912;2023-02-27T17:14:43;3.40;;;1.70;;
18596;SDS011;9428;50.950;6.912;2023-02-27T17:17:30;3.17;;;1.60;;
18596;SDS011;9428;50.950;6.912;2023-02-27T17:20:17;5.17;;;2.10;;
18596;SDS011;9428;50.950;6.912;2023-02-27T17:23:07;2.67;;;2.00;;
18596;SDS011;9428;50.950;6.912;2023-02-27T17:25:56;6.33;;;2.03;;
18596;SDS011;9428;50.950;6.912;2023-02-27T17:28:43;2.17;;;1.80;;
18596;SDS011;9428;50.950;6.912;2023-02-27T17:31:30;3.77;;;1.70;;
18596;SDS011;9428;50.950;6.912;2023-02-27T17:34:18;2.47;;;1.30;;
18596;SDS011;9428;50.950;6.912;2023-02-27T17:37:05;3.53;;;1.73;;
18596;SDS011;9428;50.950;6.912;2023-02-27T17:39:52;4.27;;;1.83;;
18596;SDS011;9428;50.950;6.912;2023-02-27T17:42:41;3.20;;;1.43;;
18596;SDS011;9428;50.950;6.912;2023-02-27T17:45:29;2.90;;;1.30;;
18596;SDS011;9428;50.950;6.912;2023-02-27T17:48:17;3.93;;;1.70;;
18596;SDS011;9428;50.950;6.912;2023-02-27T17:51:05;4.10;;;1.80;;